Hoppa till innehåll

METAR väder och rapporter - ESSB

Nedan listas information från vald flygplats. Andra METARs finns längre ned på sidan. Kontakta oss om någon saknas eller skriv in egen ICAO-kod.

Coded METAR: 2022/01/28 15:50 ESSB 281550Z 29013KT CAVOK 00/M06 Q1016

Weather Report @ ESSB

Issued: 28th Jan 2022 at 16:50 CET

Wind: moderate breeze from West-Northwest (290 degrees) at 13 knots (15 mph, 24 kph, 7 mps, Force 4)
Weather: good visibility and no low cloud (ceiling and visibility OK)
Temperature: 32F / 0C
Dewpoint: 21F / -6C
Humidity: 64%
Pressure: 1016 hPa

Coded TAF: 2017/03/27 06:35 TAF ESSB 270530Z 2706/2724 27008KT CAVOK BECMG 2710/2713 29015G25KT

Weather Forecast @ ESSB

Issued: 27th Mar 2017 at 08:35 CEST

Valid : 27th Mar 08:00 until 28th Mar 02:00 CEST

08:00 CEST
DATA TOO OLD TO BE USEFUL !

Internet delivery of weather data is not secure or reliable enough for operational purposes.

NEVER RELY ON THE OUTPUT OF THIS SCRIPT TO MAKE DECISIONS ABOUT ANYTHING IN WHICH THE WEATHER FORECAST AND ITS INTERPRETATION COULD BE AN ISSUE OF SAFETY.

Andra intressanta METARs

Klicka på önskad rubrik nedan för att visa nuvarande väder för den platsen.

Avstånd från stationen: NO 27kmESGG - Göteborg (Landvetter)
Uppdaterad: 2022-01-28 16:50
 Vind från SSV
Vind: SSV 9 km/h
Temperatur: -2°C
Vindavkylning: -6°C
Daggpunkt: -6°C
Luftfuktighet: 74%
Barometer: 1022 hPa
Summering: Klart
Sikt: mer än 10 km
2022/01/28 15:50 ESGG 281550Z 21005KT CAVOK M02/M06 Q1022
Klart
Klart
  Visa detaljer för Göteborg (Landvetter)
Avstånd från stationen: N 28kmESGP - Göteborg (Säve)
Uppdaterad: 2022-01-28 16:50
 Vind från SSV
Vind: SSV 9 km/h
Temperatur: 0°C
Vindavkylning: -3°C
Daggpunkt: -4°C
Luftfuktighet: 75%
Barometer: 1022 hPa
Summering: Klart
Sikt: mer än 10 km
2022/01/28 15:50 ESGP 281550Z 21005KT CAVOK 00/M04 Q1022
Klart
Klart
  Visa detaljer för Göteborg (Säve)
Avstånd från stationen: NO 419kmESSA - Stockholm (Arlanda)
Uppdaterad: 2022-01-28 16:50
 Vind från V
Vind: V 17 km/h
Temperatur: -1°C
Vindavkylning: -6°C
Daggpunkt: -7°C
Luftfuktighet: 64%
Barometer: 1016 hPa
Summering: Klart
Sikt: mer än 10 km
2022/01/28 15:50 ESSA 281550Z 28009KT CAVOK M01/M07 Q1016 NOSIG
Klart
Klart
  Visa detaljer för Stockholm (Arlanda)
Avstånd från stationen: ONO 404kmESSB - Stockholm (Bromma)
Uppdaterad: 2022-01-28 16:50
 Vind från VNV
Vind: VNV 24 km/h
Temperatur: 0°C
Vindavkylning: -6°C
Daggpunkt: -6°C
Luftfuktighet: 64%
Barometer: 1016 hPa
Summering: Klart
Sikt: mer än 10 km
2022/01/28 15:50 ESSB 281550Z 29013KT CAVOK 00/M06 Q1016
Klart
Klart
  Visa detaljer för Stockholm (Bromma)
Avstånd från stationen: ONO 323kmESKN - Stockholm (Skavsta)
Uppdaterad: 2022-01-28 16:50
 Vind från VNV
Vind: VNV 20 km/h
Temperatur: 0°C
Vindavkylning: -6°C
Daggpunkt: -6°C
Luftfuktighet: 64%
Barometer: 1018 hPa
Summering: Klart
Sikt: mer än 10 km
2022/01/28 15:50 ESKN 281550Z 29011KT CAVOK 00/M06 Q1018
Klart
Klart
  Visa detaljer för Stockholm (Skavsta)
Avstånd från stationen: SSO 238kmESMS - Malmö flygplats (Sturup)
Uppdaterad: 2022-01-28 16:50
 Vind från VNV
Vind: VNV 13 km/h
Temperatur: 2°C
Vindavkylning: -1°C
Daggpunkt: -5°C
Luftfuktighet: 60%
Barometer: 1024 hPa
Summering: Klart
Sikt: mer än 10 km
2022/01/28 15:50 ESMS 281550Z 29007KT CAVOK 02/M05 Q1024
Klart
Klart
  Visa detaljer för Malmö flygplats (Sturup)
Avstånd från stationen: O 382kmESSV - Visby flygplats
Uppdaterad: 2022-01-28 16:50
 Vind från NV
Vind: NV 37 km/h
Temperatur: 2°C
Vindavkylning: -4°C
Daggpunkt: -4°C
Luftfuktighet: 65%
Barometer: 1016 hPa
Summering: Klart
Sikt: mer än 10 km
2022/01/28 15:50 ESSV 281550Z 32020KT CAVOK 02/M04 Q1016
Klart
Klart
  Visa detaljer för Visby flygplats
Avstånd från stationen: NNO 92kmESGT - Trollhättan
Uppdaterad: 2022-01-28 16:50
 Vind från SSV
Vind: SSV 9 km/h
Temperatur: 1°C
Vindavkylning: -2°C
Daggpunkt: -6°C
Luftfuktighet: 60%
Barometer: 1021 hPa
Moln: Klart
Sikt: 10 km
2022/01/28 15:50 ESGT 281550Z AUTO 20005KT 9999 NCD 01/M06 Q1021
Klart
Klart
  Visa detaljer för Trollhättan
Avstånd från stationen: ONO 129kmESGJ - Jönköpings flygplats
Uppdaterad: 2022-01-28 16:50
 Vind från V
Vind: V 7 km/h
Temperatur: -1°C
Vindavkylning: -4°C
Daggpunkt: -6°C
Luftfuktighet: 69%
Barometer: 1020 hPa
Moln: Klart
Sikt: 10 km
2022/01/28 15:50 ESGJ 281550Z AUTO 26004KT 9999 NCD M01/M06 Q1020
Klart
Klart
  Visa detaljer för Jönköpings flygplats
Avstånd från stationen: NNO 229kmESOK - Karlstad
Uppdaterad: 2022-01-28 16:50
 Vind från SSV
Vind: SSV 11 km/h
Temperatur: -1°C
Vindavkylning: -5°C
Daggpunkt: -7°C
Luftfuktighet: 64%
Barometer: 1018 hPa
Moln: Klart
Sikt: 10 km
2022/01/28 15:50 ESOK 281550Z AUTO 20006KT 9999 NCD M01/M07 Q1018
Klart
Klart
  Visa detaljer för Karlstad
Avstånd från stationen: N 643kmESNZ - Östersund (Frösön)
Uppdaterad: 2022-01-28 16:50
 Vind från S
Vind: S 17 km/h
Temperatur: -2°C
Vindavkylning: -7°C
Daggpunkt: -6°C
Luftfuktighet: 74%
Barometer: 1008 hPa
Summering: Light Snow
Moln: Några få moln
Sikt: 10 km
Molninformation: Några få moln 610 m
2022/01/28 15:50 ESNZ 281550Z 18009KT 9999 -SN FEW020 M02/M06 Q1008
Light snow, Några få moln
Light snow
Några få moln
  Visa detaljer för Östersund (Frösön)
Avstånd från stationen: SSO 216kmEKCH - Köpenhamn (Kastrup)
Uppdaterad: 2022-01-28 16:50
 Vind från VNV
Vind: VNV 11 km/h
Temperatur: 3°C
Vindavkylning: 0°C
Daggpunkt: -8°C
Luftfuktighet: 45%
Barometer: 1025 hPa
Moln: Klart
Sikt: 10 km
2022/01/28 15:50 EKCH 281550Z AUTO 29006KT 9999 NCD 03/M08 Q1025 NOSIG
Klart
Klart
  Visa detaljer för Köpenhamn (Kastrup)
Avstånd från stationen: SV 263kmEKBI - Billund Airport
Uppdaterad: 2022-01-28 16:50
 Vind från V
Vind: V 13 km/h
Temperatur: 4°C
Vindavkylning: 1°C
Daggpunkt: 0°C
Luftfuktighet: 75%
Barometer: 1026 hPa
Moln: Genommulet
Sikt: 10 km
Molninformation: Genommulet 914 m
2022/01/28 15:50 EKBI 281550Z AUTO 26007KT 9999 OVC030/// 04/00 Q1026
Genommulet
Genommulet
  Visa detaljer för Billund Airport
Avstånd från stationen: N 302kmENGM - Oslo (Gardermoen)
Uppdaterad: 2022-01-28 16:50
 Vind från SSO
Vind: SSO 15 km/h
Temperatur: 0°C
Vindavkylning: -4°C
Daggpunkt: -8°C
Luftfuktighet: 55%
Barometer: 1016 hPa
Summering: Skurar i närheten
Moln: Delvis molnigt
Sikt: 10 km
2022/01/28 15:50 ENGM 281550Z 16008KT 9999 VCSH NSC M00/M08 Q1016 NOSIG
Nearby showers, Delvis molnigt
Nearby showers
Delvis molnigt
  Visa detaljer för Oslo (Gardermoen)
Avstånd från stationen: NO 540kmEFMA - Mariehamn / Åland
Uppdaterad: 2022-01-28 16:50
 Vind från NNV
Vind: NNV 17 km/h
Temperatur: 0°C
Vindavkylning: -4°C
Daggpunkt: -6°C
Luftfuktighet: 64%
Barometer: 1013 hPa
Summering: Klart
Sikt: mer än 10 km
2022/01/28 15:50 EFMA 281550Z AUTO 34009KT 300V360 CAVOK M00/M06 Q1013
Klart
Klart
  Visa detaljer för Mariehamn / Åland
Avstånd från stationen: S 558kmEDDT - Berlin (Tegel), Germany
Uppdaterad: 2020-11-09 07:50
Ej aktuell
 Vind från O
Vind: O 11 km/h
Temperatur: 6°C
Vindavkylning: 4°C
Daggpunkt: 5°C
Luftfuktighet: 93%
Barometer: 1027 hPa
Summering: Dimmigt
Moln: Genommulet
Sikt: 3 km
Molninformation: Genommulet 91 m
2020/11/09 06:50 EDDT 090650Z 09006KT 050V120 3000 BR OVC003 06/05 Q1027
Dimmigt, Genommulet
Dimmigt
Genommulet
  Visa detaljer för Berlin (Tegel), Germany
Avstånd från stationen: SV 737kmEHAM - Amsterdam (Schiphol)
Uppdaterad: 2022-01-28 16:55
 Vind från VSV
Vind: VSV 22 km/h
Temperatur: 7°C
Vindavkylning: 4°C
Daggpunkt: 4°C
Luftfuktighet: 81%
Barometer: 1032 hPa
Moln: Delvis molnigt
Sikt: 10 km
Molninformation: Delvis molnigt 366 m
2022/01/28 15:55 EHAM 281555Z 24012KT 210V270 9999 SCT012 07/04 Q1032 TEMPO BKN012
Delvis molnigt
Delvis molnigt
  Visa detaljer för Amsterdam (Schiphol)
Avstånd från stationen: ONO 808kmEFHK - Helsingfors (Vantaa)
Uppdaterad: 2022-01-28 16:50
 Vind från NV
Vind: NV 20 km/h
Temperatur: -2°C
Vindavkylning: -8°C
Daggpunkt: -3°C
Luftfuktighet: 93%
Barometer: 1006 hPa
Moln: Några få moln
Sikt: 10 km
Molninformation: Några få moln 457 m
2022/01/28 15:50 EFHK 281550Z 32011KT 9999 FEW015 M02/M03 Q1006 NOSIG
Några få moln
Några få moln
  Visa detaljer för Helsingfors (Vantaa)
Avstånd från stationen: SSV 537kmEDDW - Bremen
Uppdaterad: 2022-01-28 16:50
 Vind från V
Vind: V 17 km/h
Temperatur: 6°C
Vindavkylning: 3°C
Daggpunkt: 0°C
Luftfuktighet: 66%
Barometer: 1031 hPa
Moln: Övervägande molnigt
Sikt: 10 km
Molninformation: Övervägande molnigt 1006 m
2022/01/28 15:50 EDDW 281550Z 28009KT 9999 BKN033 06/M00 Q1031 NOSIG
Övervägande molnigt
Övervägande molnigt
  Visa detaljer för Bremen
Avstånd från stationen: SSV 861kmEDDF - Frankfurt am Main
Uppdaterad: 2022-01-28 16:50
 Vind från NV
Vind: NV 13 km/h
Temperatur: 7°C
Vindavkylning: 5°C
Daggpunkt: 0°C
Luftfuktighet: 61%
Barometer: 1034 hPa
Moln: Några få moln
Sikt: 10 km
Molninformation: Några få moln 1219 m
2022/01/28 15:50 EDDF 281550Z 32007KT 9999 FEW040 07/00 Q1034 NOSIG
Några få moln
Några få moln
  Visa detaljer för Frankfurt am Main
Avstånd från stationen: SV 880kmEBBR - Bryssel international
Uppdaterad: 2022-01-28 16:50
 Vind från VSV
Vind: VSV 9 km/h
Temperatur: 6°C
Vindavkylning: 4°C
Daggpunkt: 4°C
Luftfuktighet: 87%
Barometer: 1035 hPa
Moln: Övervägande molnigt
Sikt: 6 km
Molninformation: Övervägande molnigt 274 m
2022/01/28 15:50 EBBR 281550Z 24005KT 200V270 6000 BKN009 06/04 Q1035 NOSIG
Övervägande molnigt
Övervägande molnigt
  Visa detaljer för Bryssel international
Avstånd från stationen: SV 738kmEHAM - Amsterdam (Schiphol)
Uppdaterad: 2022-01-28 16:55
 Vind från VSV
Vind: VSV 22 km/h
Temperatur: 7°C
Vindavkylning: 4°C
Daggpunkt: 4°C
Luftfuktighet: 81%
Barometer: 1032 hPa
Moln: Delvis molnigt
Sikt: 10 km
Molninformation: Delvis molnigt 366 m
2022/01/28 15:55 EHAM 281555Z 24012KT 210V270 9999 SCT012 07/04 Q1032 TEMPO BKN012
Delvis molnigt
Delvis molnigt
  Visa detaljer för Amsterdam (Schiphol)
Avstånd från stationen: SV 1044kmEGLL - London (Heathrow)
Uppdaterad: 2022-01-28 16:50
 Vind från VSV
Vind: VSV 15 km/h
Temperatur: 9°C
Vindavkylning: 7°C
Daggpunkt: 4°C
Luftfuktighet: 71%
Barometer: 1033 hPa
Moln: Klart
Sikt: 10 km
2022/01/28 15:50 EGLL 281550Z AUTO 24008KT 9999 NCD 09/04 Q1033
Klart
Klart
  Visa detaljer för London (Heathrow)
Avstånd från stationen: SV 1132kmLFPG - Paris (Charles de Gaulle)
Uppdaterad: 2022-01-28 16:30
 Vind från SSV
Vind: SSV 11 km/h
Temperatur: 7°C
Vindavkylning: 5°C
Daggpunkt: 3°C
Luftfuktighet: 76%
Barometer: 1036 hPa
Moln: Övervägande molnigt
Sikt: 10 km
Molninformation: Övervägande molnigt 610 m
2022/01/28 15:30 LFPG 281530Z 21006KT 9999 BKN020 07/03 Q1036 NOSIG
Övervägande molnigt
Övervägande molnigt
  Visa detaljer för Paris (Charles de Gaulle)
Avstånd från stationen: SSV 1142kmLSZH - Zürich Airport
Uppdaterad: 2022-01-28 16:50
 Vind från NV
Vind: NV 11 km/h
Temperatur: 5°C
Vindavkylning: 2°C
Daggpunkt: -1°C
Luftfuktighet: 66%
Barometer: 1035 hPa
Moln: Några få moln
Sikt: 10 km
Molninformation: Några få moln 823 m
2022/01/28 15:50 LSZH 281550Z 32006KT 9999 FEW027 05/M01 Q1035 NOSIG
Några få moln
Några få moln
  Visa detaljer för Zürich Airport
Avstånd från stationen: S 1749kmLIRF - Rome Airport (Fiumicino - Leonardo da Vinci)
Uppdaterad: 2022-01-28 16:50
 Vind från VNV
Vind: VNV 15 km/h
Temperatur: 13°C
Daggpunkt: 8°C
Luftfuktighet: 72%
Barometer: 1023 hPa
Summering: Klart
Sikt: mer än 10 km
2022/01/28 15:50 LIRF 281550Z 30008KT CAVOK 13/08 Q1023 NOSIG
Klart
Klart
  Visa detaljer för Rome Airport (Fiumicino - Leonardo da Vinci)
Avstånd från stationen: SO 2679kmLTAI - Antalya
Uppdaterad: 2022-01-28 16:50
 Vind från NNO
Vind: NNO 6 km/h
Temperatur: 8°C
Daggpunkt: -7°C
Luftfuktighet: 34%
Barometer: 1020 hPa
Summering: Klart
Sikt: mer än 10 km
2022/01/28 15:50 LTAI 281550Z 02003KT 340V040 CAVOK 08/M07 Q1020 NOSIG
Klart
Klart
  Visa detaljer för Antalya
Avstånd från stationen: VSV 6074kmKJFK - New Your (JFK)
Uppdaterad: 2022-01-28 16:51
 Vind från SSV
Vind: SSV 6 km/h
Temperatur: -1°C
Daggpunkt: -3°C
Luftfuktighet: 86%
Barometer: 1021.3 hPa
Summering: Light snow, Dimmigt
Moln: Genommulet
Sikt: 4 km
Molninformation: Delvis molnigt 366 m
Övervägande molnigt 884 m
Genommulet 1433 m
2022/01/28 15:51 KJFK 281551Z 20003KT 2 1/2SM -SN BR SCT012 BKN029 OVC047 M01/M03 A3016 RMK AO2 SLP214 P0001 T10111028
Light snow, Dimmigt, Genommulet
Light snow
Dimmigt
Genommulet
  Visa detaljer för New Your (JFK)
Avstånd från stationen: VSV 8848kmKLAX - Los Angeles International Airport
Uppdaterad: 2022-01-28 16:53
 Vind från ONO
Vind: ONO 7 km/h
Temperatur: 13°C
Daggpunkt: -4°C
Luftfuktighet: 31%
Barometer: 1024.7 hPa
Moln: Övervägande molnigt
Sikt: 16 km
Molninformation: Några få moln 7315 m
Övervägande molnigt 9144 m
2022/01/28 15:53 KLAX 281553Z 07004KT 10SM FEW240 BKN300 13/M04 A3026 RMK AO2 SLP246 T01331044
Övervägande molnigt
Övervägande molnigt
  Visa detaljer för Los Angeles International Airport
Avstånd från stationen: SO 4968kmOMDB - Dubai International Airport
Uppdaterad: 2022-01-28 17:00
 Vind från NV
Vind: NV 9 km/h
Temperatur: 23°C
Daggpunkt: 16°C
Luftfuktighet: 65%
Summering: Klart
Sikt: mer än 10 km
2022/01/28 16:00 OMDB 281600Z 32005KT 290V350 CAVOK 23/16 Q101
Klart
Klart
  Visa detaljer för Dubai International Airport
Avstånd från stationen: OSO 8570kmRJTT - Tokyo International Airport
Uppdaterad: 2022-01-28 16:30
 Vind från N
Vind: N 31 km/h
Temperatur: 6°C
Vindavkylning: 1°C
Daggpunkt: -6°C
Luftfuktighet: 42%
Barometer: 1014 hPa
Moln: Övervägande molnigt
Sikt: 10 km
Molninformation: Övervägande molnigt 1524 m
2022/01/28 15:30 RJTT 281530Z 35017KT 9999 BKN050 06/M06 Q1014 NOSIG RMK 5SC050 A2994
Övervägande molnigt
Övervägande molnigt
  Visa detaljer för Tokyo International Airport
Avstånd från stationen: OSO 7125kmZBAA - Peking (Beijing Capital)
Uppdaterad: 2022-01-28 16:30
 Vind från N
Vind: N 7 km/h
Temperatur: -6°C
Vindavkylning: -9°C
Daggpunkt: -15°C
Luftfuktighet: 49%
Barometer: 1030 hPa
Summering: Klart
Sikt: mer än 10 km
2022/01/28 15:30 ZBAA 281530Z 35002MPS 310V020 CAVOK M06/M15 Q1030 NOSIG
Klart
Klart
  Visa detaljer för Peking (Beijing Capital)
VÄDER KURIOSA -  SnowSnowflakes generally fall from the sky at speeds between one and five miles per hour.